sensor_id;sensor_type;location;lat;lon;timestamp;P1;durP1;ratioP1;P2;durP2;ratioP2
67839;SDS011;54636;51.684;5.142;2022-11-20T00:00:00;20.65;;;12.70;;
67839;SDS011;54636;51.684;5.142;2022-11-20T00:02:25;19.58;;;11.50;;
67839;SDS011;54636;51.684;5.142;2022-11-20T00:04:51;15.18;;;10.70;;
67839;SDS011;54636;51.684;5.142;2022-11-20T00:07:16;16.20;;;11.15;;
67839;SDS011;54636;51.684;5.142;2022-11-20T00:09:42;13.93;;;10.23;;
67839;SDS011;54636;51.684;5.142;2022-11-20T00:12:07;12.05;;;10.45;;
67839;SDS011;54636;51.684;5.142;2022-11-20T00:14:33;12.35;;;9.93;;
67839;SDS011;54636;51.684;5.142;2022-11-20T00:16:58;14.45;;;10.52;;
67839;SDS011;54636;51.684;5.142;2022-11-20T00:19:23;17.33;;;10.40;;
67839;SDS011;54636;51.684;5.142;2022-11-20T00:21:49;15.80;;;11.30;;
67839;SDS011;54636;51.684;5.142;2022-11-20T00:24:16;12.70;;;9.95;;
67839;SDS011;54636;51.684;5.142;2022-11-20T00:26:42;12.63;;;9.75;;
67839;SDS011;54636;51.684;5.142;2022-11-20T00:29:08;17.77;;;11.68;;
67839;SDS011;54636;51.684;5.142;2022-11-20T00:31:34;17.38;;;11.57;;
67839;SDS011;54636;51.684;5.142;2022-11-20T00:34:00;14.90;;;11.27;;
67839;SDS011;54636;51.684;5.142;2022-11-20T00:36:26;13.98;;;11.45;;
67839;SDS011;54636;51.684;5.142;2022-11-20T00:38:53;13.55;;;10.27;;
67839;SDS011;54636;51.684;5.142;2022-11-20T00:41:20;14.85;;;10.85;;
67839;SDS011;54636;51.684;5.142;2022-11-20T00:43:46;19.13;;;10.45;;
67839;SDS011;54636;51.684;5.142;2022-11-20T00:46:13;18.08;;;10.93;;
67839;SDS011;54636;51.684;5.142;2022-11-20T00:48:40;14.73;;;10.25;;
67839;SDS011;54636;51.684;5.142;2022-11-20T00:51:06;12.65;;;10.65;;
67839;SDS011;54636;51.684;5.142;2022-11-20T00:53:32;13.43;;;10.63;;
67839;SDS011;54636;51.684;5.142;2022-11-20T00:56:02;11.68;;;9.43;;
67839;SDS011;54636;51.684;5.142;2022-11-20T00:58:30;11.40;;;9.32;;
67839;SDS011;54636;51.684;5.142;2022-11-20T01:01:00;13.00;;;9.68;;
67839;SDS011;54636;51.684;5.142;2022-11-20T01:03:37;13.52;;;10.45;;
67839;SDS011;54636;51.684;5.142;2022-11-20T01:06:06;23.30;;;10.90;;
67839;SDS011;54636;51.684;5.142;2022-11-20T01:08:35;14.50;;;10.68;;
67839;SDS011;54636;51.684;5.142;2022-11-20T01:11:09;14.40;;;10.70;;
67839;SDS011;54636;51.684;5.142;2022-11-20T01:13:36;12.57;;;10.52;;
67839;SDS011;54636;51.684;5.142;2022-11-20T01:16:05;13.70;;;10.55;;
67839;SDS011;54636;51.684;5.142;2022-11-20T01:18:34;15.68;;;10.65;;
67839;SDS011;54636;51.684;5.142;2022-11-20T01:21:01;17.08;;;11.43;;
67839;SDS011;54636;51.684;5.142;2022-11-20T01:23:30;13.73;;;10.73;;
67839;SDS011;54636;51.684;5.142;2022-11-20T01:25:57;15.63;;;11.25;;
67839;SDS011;54636;51.684;5.142;2022-11-20T01:28:24;16.85;;;11.70;;
67839;SDS011;54636;51.684;5.142;2022-11-20T01:30:50;15.05;;;10.88;;
67839;SDS011;54636;51.684;5.142;2022-11-20T01:33:15;14.07;;;10.85;;
67839;SDS011;54636;51.684;5.142;2022-11-20T01:35:40;16.40;;;11.60;;
67839;SDS011;54636;51.684;5.142;2022-11-20T01:38:06;15.30;;;11.30;;
67839;SDS011;54636;51.684;5.142;2022-11-20T01:40:31;14.93;;;10.32;;
67839;SDS011;54636;51.684;5.142;2022-11-20T01:43:01;16.33;;;11.55;;
67839;SDS011;54636;51.684;5.142;2022-11-20T01:48:45;18.10;;;10.60;;
67839;SDS011;54636;51.684;5.142;2022-11-20T01:53:53;15.57;;;10.18;;
67839;SDS011;54636;51.684;5.142;2022-11-20T01:56:23;15.07;;;10.82;;
67839;SDS011;54636;51.684;5.142;2022-11-20T01:58:51;20.45;;;11.05;;
67839;SDS011;54636;51.684;5.142;2022-11-20T02:01:20;14.20;;;10.75;;
67839;SDS011;54636;51.684;5.142;2022-11-20T02:03:46;17.85;;;10.07;;
67839;SDS011;54636;51.684;5.142;2022-11-20T02:09:24;15.57;;;10.85;;
67839;SDS011;54636;51.684;5.142;2022-11-20T02:11:49;15.82;;;11.25;;
67839;SDS011;54636;51.684;5.142;2022-11-20T02:14:15;14.85;;;10.77;;
67839;SDS011;54636;51.684;5.142;2022-11-20T02:16:43;14.45;;;10.65;;
67839;SDS011;54636;51.684;5.142;2022-11-20T02:19:15;18.88;;;10.40;;
67839;SDS011;54636;51.684;5.142;2022-11-20T02:21:48;18.35;;;11.70;;
67839;SDS011;54636;51.684;5.142;2022-11-20T02:24:15;13.20;;;10.55;;
67839;SDS011;54636;51.684;5.142;2022-11-20T02:29:16;15.88;;;10.73;;
67839;SDS011;54636;51.684;5.142;2022-11-20T02:31:48;15.50;;;11.43;;
67839;SDS011;54636;51.684;5.142;2022-11-20T02:34:13;17.42;;;11.65;;
67839;SDS011;54636;51.684;5.142;2022-11-20T02:36:39;16.13;;;11.43;;
67839;SDS011;54636;51.684;5.142;2022-11-20T02:39:06;15.85;;;10.93;;
67839;SDS011;54636;51.684;5.142;2022-11-20T02:41:36;15.90;;;11.00;;
67839;SDS011;54636;51.684;5.142;2022-11-20T02:44:02;18.48;;;11.85;;
67839;SDS011;54636;51.684;5.142;2022-11-20T02:46:29;14.07;;;11.02;;
67839;SDS011;54636;51.684;5.142;2022-11-20T02:48:55;14.32;;;11.35;;
67839;SDS011;54636;51.684;5.142;2022-11-20T02:51:20;25.33;;;11.85;;
67839;SDS011;54636;51.684;5.142;2022-11-20T02:53:46;14.63;;;10.52;;
67839;SDS011;54636;51.684;5.142;2022-11-20T02:56:11;14.75;;;11.48;;
67839;SDS011;54636;51.684;5.142;2022-11-20T02:58:37;15.20;;;11.10;;
67839;SDS011;54636;51.684;5.142;2022-11-20T03:01:02;15.27;;;11.77;;
67839;SDS011;54636;51.684;5.142;2022-11-20T03:03:28;13.15;;;10.68;;
67839;SDS011;54636;51.684;5.142;2022-11-20T03:05:53;15.93;;;11.55;;
67839;SDS011;54636;51.684;5.142;2022-11-20T03:08:19;15.05;;;11.55;;
67839;SDS011;54636;51.684;5.142;2022-11-20T03:10:44;14.50;;;10.90;;
67839;SDS011;54636;51.684;5.142;2022-11-20T03:13:09;15.95;;;11.25;;
67839;SDS011;54636;51.684;5.142;2022-11-20T03:15:35;13.95;;;10.63;;
67839;SDS011;54636;51.684;5.142;2022-11-20T03:18:02;14.18;;;11.20;;
67839;SDS011;54636;51.684;5.142;2022-11-20T03:20:27;16.85;;;12.20;;
67839;SDS011;54636;51.684;5.142;2022-11-20T03:22:53;16.20;;;11.57;;
67839;SDS011;54636;51.684;5.142;2022-11-20T03:25:19;16.35;;;11.70;;
67839;SDS011;54636;51.684;5.142;2022-11-20T03:27:45;16.48;;;11.27;;
67839;SDS011;54636;51.684;5.142;2022-11-20T03:30:10;13.52;;;10.98;;
67839;SDS011;54636;51.684;5.142;2022-11-20T03:32:36;13.85;;;10.80;;
67839;SDS011;54636;51.684;5.142;2022-11-20T03:35:01;17.00;;;11.50;;
67839;SDS011;54636;51.684;5.142;2022-11-20T03:37:27;14.40;;;11.07;;
67839;SDS011;54636;51.684;5.142;2022-11-20T03:39:52;15.40;;;11.85;;
67839;SDS011;54636;51.684;5.142;2022-11-20T03:42:17;19.13;;;11.20;;
67839;SDS011;54636;51.684;5.142;2022-11-20T03:45:16;13.23;;;8.82;;
67839;SDS011;54636;51.684;5.142;2022-11-20T03:47:43;15.13;;;11.38;;
67839;SDS011;54636;51.684;5.142;2022-11-20T03:50:10;16.55;;;11.23;;
67839;SDS011;54636;51.684;5.142;2022-11-20T03:52:40;17.92;;;10.63;;
67839;SDS011;54636;51.684;5.142;2022-11-20T03:55:06;14.35;;;10.25;;
67839;SDS011;54636;51.684;5.142;2022-11-20T03:57:32;13.63;;;10.98;;
67839;SDS011;54636;51.684;5.142;2022-11-20T03:59:58;15.90;;;10.57;;
67839;SDS011;54636;51.684;5.142;2022-11-20T04:02:23;15.50;;;9.48;;
67839;SDS011;54636;51.684;5.142;2022-11-20T04:04:48;14.93;;;9.77;;
67839;SDS011;54636;51.684;5.142;2022-11-20T04:07:14;15.80;;;10.88;;
67839;SDS011;54636;51.684;5.142;2022-11-20T04:09:39;14.50;;;11.30;;
67839;SDS011;54636;51.684;5.142;2022-11-20T04:12:04;15.70;;;10.55;;
67839;SDS011;54636;51.684;5.142;2022-11-20T04:14:30;11.40;;;8.63;;
67839;SDS011;54636;51.684;5.142;2022-11-20T04:16:55;17.17;;;11.32;;
67839;SDS011;54636;51.684;5.142;2022-11-20T04:19:21;16.50;;;11.77;;
67839;SDS011;54636;51.684;5.142;2022-11-20T04:21:46;16.58;;;10.40;;
67839;SDS011;54636;51.684;5.142;2022-11-20T04:24:13;14.00;;;9.77;;
67839;SDS011;54636;51.684;5.142;2022-11-20T04:26:38;15.15;;;11.05;;
67839;SDS011;54636;51.684;5.142;2022-11-20T04:29:04;12.77;;;9.77;;
67839;SDS011;54636;51.684;5.142;2022-11-20T04:31:30;13.15;;;10.45;;
67839;SDS011;54636;51.684;5.142;2022-11-20T04:34:01;12.88;;;9.93;;
67839;SDS011;54636;51.684;5.142;2022-11-20T04:36:28;15.85;;;10.90;;
67839;SDS011;54636;51.684;5.142;2022-11-20T04:39:04;16.63;;;11.68;;
67839;SDS011;54636;51.684;5.142;2022-11-20T04:41:32;18.92;;;11.77;;
67839;SDS011;54636;51.684;5.142;2022-11-20T04:43:59;19.90;;;11.50;;
67839;SDS011;54636;51.684;5.142;2022-11-20T04:46:28;17.10;;;11.25;;
67839;SDS011;54636;51.684;5.142;2022-11-20T04:48:55;14.18;;;10.65;;
67839;SDS011;54636;51.684;5.142;2022-11-20T04:51:21;13.07;;;10.20;;
67839;SDS011;54636;51.684;5.142;2022-11-20T04:53:47;14.02;;;10.23;;
67839;SDS011;54636;51.684;5.142;2022-11-20T04:56:13;13.85;;;10.10;;
67839;SDS011;54636;51.684;5.142;2022-11-20T04:58:39;6.85;;;6.13;;
67839;SDS011;54636;51.684;5.142;2022-11-20T05:01:11;15.75;;;11.65;;
67839;SDS011;54636;51.684;5.142;2022-11-20T05:03:39;11.60;;;9.77;;
67839;SDS011;54636;51.684;5.142;2022-11-20T05:06:05;15.38;;;10.75;;
67839;SDS011;54636;51.684;5.142;2022-11-20T05:08:32;13.20;;;9.57;;
67839;SDS011;54636;51.684;5.142;2022-11-20T05:11:02;12.10;;;9.60;;
67839;SDS011;54636;51.684;5.142;2022-11-20T05:13:28;17.15;;;10.93;;
67839;SDS011;54636;51.684;5.142;2022-11-20T05:15:54;13.63;;;9.57;;
67839;SDS011;54636;51.684;5.142;2022-11-20T05:18:19;14.40;;;10.90;;
67839;SDS011;54636;51.684;5.142;2022-11-20T05:20:45;13.88;;;10.40;;
67839;SDS011;54636;51.684;5.142;2022-11-20T05:23:10;12.85;;;10.20;;
67839;SDS011;54636;51.684;5.142;2022-11-20T05:25:35;14.32;;;10.93;;
67839;SDS011;54636;51.684;5.142;2022-11-20T05:28:01;14.52;;;11.00;;
67839;SDS011;54636;51.684;5.142;2022-11-20T05:30:26;14.55;;;10.13;;
67839;SDS011;54636;51.684;5.142;2022-11-20T05:32:51;13.70;;;10.38;;
67839;SDS011;54636;51.684;5.142;2022-11-20T05:35:17;14.57;;;10.65;;
67839;SDS011;54636;51.684;5.142;2022-11-20T05:37:42;14.57;;;9.90;;
67839;SDS011;54636;51.684;5.142;2022-11-20T05:40:07;16.92;;;11.23;;
67839;SDS011;54636;51.684;5.142;2022-11-20T05:42:33;15.65;;;10.23;;
67839;SDS011;54636;51.684;5.142;2022-11-20T05:45:02;23.02;;;11.50;;
67839;SDS011;54636;51.684;5.142;2022-11-20T05:47:33;13.38;;;10.40;;
67839;SDS011;54636;51.684;5.142;2022-11-20T05:52:28;15.75;;;9.50;;
67839;SDS011;54636;51.684;5.142;2022-11-20T05:54:54;12.95;;;10.15;;
67839;SDS011;54636;51.684;5.142;2022-11-20T05:57:20;15.98;;;11.13;;
67839;SDS011;54636;51.684;5.142;2022-11-20T05:59:45;15.57;;;10.43;;
67839;SDS011;54636;51.684;5.142;2022-11-20T06:02:10;13.38;;;10.40;;
67839;SDS011;54636;51.684;5.142;2022-11-20T06:04:36;20.42;;;10.48;;
67839;SDS011;54636;51.684;5.142;2022-11-20T06:07:01;16.50;;;10.68;;
67839;SDS011;54636;51.684;5.142;2022-11-20T06:09:27;14.65;;;9.82;;
67839;SDS011;54636;51.684;5.142;2022-11-20T06:11:52;14.40;;;10.60;;
67839;SDS011;54636;51.684;5.142;2022-11-20T06:14:18;13.30;;;9.90;;
67839;SDS011;54636;51.684;5.142;2022-11-20T06:16:43;15.23;;;10.45;;
67839;SDS011;54636;51.684;5.142;2022-11-20T06:19:08;13.10;;;9.80;;
67839;SDS011;54636;51.684;5.142;2022-11-20T06:21:34;16.55;;;11.15;;
67839;SDS011;54636;51.684;5.142;2022-11-20T06:23:59;13.65;;;10.00;;
67839;SDS011;54636;51.684;5.142;2022-11-20T06:26:25;16.55;;;9.90;;
67839;SDS011;54636;51.684;5.142;2022-11-20T06:28:53;14.25;;;9.88;;
67839;SDS011;54636;51.684;5.142;2022-11-20T06:31:20;11.95;;;9.57;;
67839;SDS011;54636;51.684;5.142;2022-11-20T06:33:47;9.23;;;7.35;;
67839;SDS011;54636;51.684;5.142;2022-11-20T06:36:13;12.73;;;8.52;;
67839;SDS011;54636;51.684;5.142;2022-11-20T06:38:40;13.00;;;8.18;;
67839;SDS011;54636;51.684;5.142;2022-11-20T06:41:06;5.88;;;4.28;;
67839;SDS011;54636;51.684;5.142;2022-11-20T06:43:35;8.68;;;6.47;;
67839;SDS011;54636;51.684;5.142;2022-11-20T06:46:00;10.57;;;7.95;;
67839;SDS011;54636;51.684;5.142;2022-11-20T06:48:27;4.30;;;3.90;;
67839;SDS011;54636;51.684;5.142;2022-11-20T06:50:53;7.47;;;6.70;;
67839;SDS011;54636;51.684;5.142;2022-11-20T06:53:18;10.73;;;7.88;;
67839;SDS011;54636;51.684;5.142;2022-11-20T06:55:44;15.50;;;10.77;;
67839;SDS011;54636;51.684;5.142;2022-11-20T06:58:11;16.75;;;11.35;;
67839;SDS011;54636;51.684;5.142;2022-11-20T07:00:37;12.63;;;7.72;;
67839;SDS011;54636;51.684;5.142;2022-11-20T07:03:06;16.27;;;11.93;;
67839;SDS011;54636;51.684;5.142;2022-11-20T07:05:33;15.80;;;11.50;;
67839;SDS011;54636;51.684;5.142;2022-11-20T07:07:59;17.30;;;11.98;;
67839;SDS011;54636;51.684;5.142;2022-11-20T07:10:25;14.68;;;10.43;;
67839;SDS011;54636;51.684;5.142;2022-11-20T07:12:51;18.23;;;12.50;;
67839;SDS011;54636;51.684;5.142;2022-11-20T07:15:17;16.95;;;10.55;;
67839;SDS011;54636;51.684;5.142;2022-11-20T07:17:43;12.18;;;8.13;;
67839;SDS011;54636;51.684;5.142;2022-11-20T07:20:09;12.60;;;8.65;;
67839;SDS011;54636;51.684;5.142;2022-11-20T07:22:35;8.77;;;6.57;;
67839;SDS011;54636;51.684;5.142;2022-11-20T07:25:00;15.98;;;12.23;;
67839;SDS011;54636;51.684;5.142;2022-11-20T07:27:26;10.02;;;6.97;;
67839;SDS011;54636;51.684;5.142;2022-11-20T07:29:52;17.30;;;12.18;;
67839;SDS011;54636;51.684;5.142;2022-11-20T07:32:17;16.73;;;11.43;;
67839;SDS011;54636;51.684;5.142;2022-11-20T07:34:43;15.73;;;11.68;;
67839;SDS011;54636;51.684;5.142;2022-11-20T07:37:08;18.73;;;12.98;;
67839;SDS011;54636;51.684;5.142;2022-11-20T07:39:34;16.67;;;13.02;;
67839;SDS011;54636;51.684;5.142;2022-11-20T07:41:59;15.73;;;10.90;;
67839;SDS011;54636;51.684;5.142;2022-11-20T07:44:25;2.80;;;2.60;;
67839;SDS011;54636;51.684;5.142;2022-11-20T07:46:50;5.65;;;4.95;;
67839;SDS011;54636;51.684;5.142;2022-11-20T07:49:15;22.08;;;14.32;;
67839;SDS011;54636;51.684;5.142;2022-11-20T07:51:41;21.65;;;14.38;;
67839;SDS011;54636;51.684;5.142;2022-11-20T07:54:06;18.38;;;13.70;;
67839;SDS011;54636;51.684;5.142;2022-11-20T07:56:31;21.58;;;14.38;;
67839;SDS011;54636;51.684;5.142;2022-11-20T07:58:57;17.95;;;12.73;;
67839;SDS011;54636;51.684;5.142;2022-11-20T08:01:22;20.75;;;14.30;;
67839;SDS011;54636;51.684;5.142;2022-11-20T08:03:47;18.00;;;13.70;;
67839;SDS011;54636;51.684;5.142;2022-11-20T08:06:13;20.67;;;14.77;;
67839;SDS011;54636;51.684;5.142;2022-11-20T08:08:39;20.30;;;13.88;;
67839;SDS011;54636;51.684;5.142;2022-11-20T08:11:05;20.95;;;14.25;;
67839;SDS011;54636;51.684;5.142;2022-11-20T08:13:50;18.30;;;13.85;;
67839;SDS011;54636;51.684;5.142;2022-11-20T08:16:34;20.85;;;14.30;;
67839;SDS011;54636;51.684;5.142;2022-11-20T08:18:59;20.15;;;15.70;;
67839;SDS011;54636;51.684;5.142;2022-11-20T08:21:25;23.75;;;14.25;;
67839;SDS011;54636;51.684;5.142;2022-11-20T08:23:50;22.13;;;15.23;;
67839;SDS011;54636;51.684;5.142;2022-11-20T08:26:15;23.30;;;15.45;;
67839;SDS011;54636;51.684;5.142;2022-11-20T08:28:41;19.67;;;15.18;;
67839;SDS011;54636;51.684;5.142;2022-11-20T08:31:06;17.30;;;13.77;;
67839;SDS011;54636;51.684;5.142;2022-11-20T08:33:32;20.10;;;14.55;;
67839;SDS011;54636;51.684;5.142;2022-11-20T08:36:01;24.52;;;15.90;;
67839;SDS011;54636;51.684;5.142;2022-11-20T08:40:56;17.63;;;13.32;;
67839;SDS011;54636;51.684;5.142;2022-11-20T08:43:43;17.98;;;13.30;;
67839;SDS011;54636;51.684;5.142;2022-11-20T08:46:09;17.85;;;14.50;;
67839;SDS011;54636;51.684;5.142;2022-11-20T08:48:34;19.13;;;14.63;;
67839;SDS011;54636;51.684;5.142;2022-11-20T08:51:00;20.42;;;15.55;;
67839;SDS011;54636;51.684;5.142;2022-11-20T08:53:26;23.30;;;15.35;;
67839;SDS011;54636;51.684;5.142;2022-11-20T08:55:52;25.83;;;15.57;;
67839;SDS011;54636;51.684;5.142;2022-11-20T08:58:17;20.73;;;16.17;;
67839;SDS011;54636;51.684;5.142;2022-11-20T09:00:42;18.98;;;15.13;;
67839;SDS011;54636;51.684;5.142;2022-11-20T09:03:08;20.77;;;16.20;;
67839;SDS011;54636;51.684;5.142;2022-11-20T09:05:33;25.13;;;16.70;;
67839;SDS011;54636;51.684;5.142;2022-11-20T09:07:59;21.58;;;16.17;;
67839;SDS011;54636;51.684;5.142;2022-11-20T09:10:25;23.25;;;16.30;;
67839;SDS011;54636;51.684;5.142;2022-11-20T09:12:51;24.75;;;16.42;;
67839;SDS011;54636;51.684;5.142;2022-11-20T09:15:17;17.15;;;11.38;;
67839;SDS011;54636;51.684;5.142;2022-11-20T09:17:53;29.38;;;17.10;;
67839;SDS011;54636;51.684;5.142;2022-11-20T09:20:23;26.77;;;17.40;;
67839;SDS011;54636;51.684;5.142;2022-11-20T09:22:49;23.63;;;16.35;;
67839;SDS011;54636;51.684;5.142;2022-11-20T09:25:15;33.60;;;14.23;;
67839;SDS011;54636;51.684;5.142;2022-11-20T09:27:40;25.17;;;16.90;;
67839;SDS011;54636;51.684;5.142;2022-11-20T09:30:11;25.17;;;18.10;;
67839;SDS011;54636;51.684;5.142;2022-11-20T09:32:40;25.35;;;16.48;;
67839;SDS011;54636;51.684;5.142;2022-11-20T09:35:07;25.37;;;16.90;;
67839;SDS011;54636;51.684;5.142;2022-11-20T09:37:32;28.70;;;17.63;;
67839;SDS011;54636;51.684;5.142;2022-11-20T09:39:58;23.95;;;15.70;;
67839;SDS011;54636;51.684;5.142;2022-11-20T09:42:37;27.52;;;17.13;;
67839;SDS011;54636;51.684;5.142;2022-11-20T09:53:27;24.63;;;15.63;;
67839;SDS011;54636;51.684;5.142;2022-11-20T09:56:01;25.58;;;16.23;;
67839;SDS011;54636;51.684;5.142;2022-11-20T09:58:29;22.77;;;16.55;;
67839;SDS011;54636;51.684;5.142;2022-11-20T10:01:03;10.13;;;8.52;;
67839;SDS011;54636;51.684;5.142;2022-11-20T10:03:41;22.73;;;15.50;;
67839;SDS011;54636;51.684;5.142;2022-11-20T10:06:15;25.65;;;17.15;;
67839;SDS011;54636;51.684;5.142;2022-11-20T10:08:56;26.95;;;17.67;;
67839;SDS011;54636;51.684;5.142;2022-11-20T10:14:34;22.65;;;14.68;;
67839;SDS011;54636;51.684;5.142;2022-11-20T10:22:30;22.70;;;15.20;;
67839;SDS011;54636;51.684;5.142;2022-11-20T10:30:41;23.00;;;15.45;;
67839;SDS011;54636;51.684;5.142;2022-11-20T10:33:13;24.70;;;16.50;;
67839;SDS011;54636;51.684;5.142;2022-11-20T10:36:04;31.90;;;18.83;;
67839;SDS011;54636;51.684;5.142;2022-11-20T10:38:48;25.02;;;17.38;;
67839;SDS011;54636;51.684;5.142;2022-11-20T10:41:40;21.38;;;15.30;;
67839;SDS011;54636;51.684;5.142;2022-11-20T10:46:44;34.25;;;19.42;;
67839;SDS011;54636;51.684;5.142;2022-11-20T10:49:11;23.35;;;15.80;;
67839;SDS011;54636;51.684;5.142;2022-11-20T10:51:42;28.23;;;17.63;;
67839;SDS011;54636;51.684;5.142;2022-11-20T10:57:18;19.92;;;13.30;;
67839;SDS011;54636;51.684;5.142;2022-11-20T11:00:01;19.73;;;14.75;;
67839;SDS011;54636;51.684;5.142;2022-11-20T11:02:41;28.95;;;17.90;;
67839;SDS011;54636;51.684;5.142;2022-11-20T11:05:36;24.52;;;15.63;;
67839;SDS011;54636;51.684;5.142;2022-11-20T11:08:35;28.55;;;18.25;;
67839;SDS011;54636;51.684;5.142;2022-11-20T11:11:09;28.88;;;18.40;;
67839;SDS011;54636;51.684;5.142;2022-11-20T11:13:45;22.23;;;14.48;;
67839;SDS011;54636;51.684;5.142;2022-11-20T11:16:21;34.42;;;18.92;;
67839;SDS011;54636;51.684;5.142;2022-11-20T11:18:48;28.73;;;18.35;;
67839;SDS011;54636;51.684;5.142;2022-11-20T11:21:13;12.30;;;11.00;;
67839;SDS011;54636;51.684;5.142;2022-11-20T11:23:48;33.97;;;19.48;;
67839;SDS011;54636;51.684;5.142;2022-11-20T11:26:24;26.20;;;15.73;;
67839;SDS011;54636;51.684;5.142;2022-11-20T11:28:57;33.45;;;19.70;;
67839;SDS011;54636;51.684;5.142;2022-11-20T11:31:29;43.00;;;21.65;;
67839;SDS011;54636;51.684;5.142;2022-11-20T11:34:05;30.85;;;19.65;;
67839;SDS011;54636;51.684;5.142;2022-11-20T11:36:38;32.13;;;17.30;;
67839;SDS011;54636;51.684;5.142;2022-11-20T11:39:05;25.95;;;16.85;;
67839;SDS011;54636;51.684;5.142;2022-11-20T11:41:36;36.05;;;19.58;;
67839;SDS011;54636;51.684;5.142;2022-11-20T11:44:13;29.27;;;18.52;;
67839;SDS011;54636;51.684;5.142;2022-11-20T11:47:04;32.28;;;19.27;;
67839;SDS011;54636;51.684;5.142;2022-11-20T11:49:34;26.65;;;18.50;;
67839;SDS011;54636;51.684;5.142;2022-11-20T11:52:11;16.17;;;11.55;;
67839;SDS011;54636;51.684;5.142;2022-11-20T11:57:54;25.58;;;16.10;;
67839;SDS011;54636;51.684;5.142;2022-11-20T12:00:27;32.25;;;20.95;;
67839;SDS011;54636;51.684;5.142;2022-11-20T12:02:54;34.40;;;18.63;;
67839;SDS011;54636;51.684;5.142;2022-11-20T12:05:39;27.00;;;17.90;;
67839;SDS011;54636;51.684;5.142;2022-11-20T12:11:12;28.15;;;16.83;;
67839;SDS011;54636;51.684;5.142;2022-11-20T12:13:54;35.10;;;18.25;;
67839;SDS011;54636;51.684;5.142;2022-11-20T12:16:23;28.75;;;16.92;;
67839;SDS011;54636;51.684;5.142;2022-11-20T12:18:50;31.85;;;18.00;;
67839;SDS011;54636;51.684;5.142;2022-11-20T12:21:18;40.00;;;22.95;;
67839;SDS011;54636;51.684;5.142;2022-11-20T12:40:28;27.48;;;18.27;;
67839;SDS011;54636;51.684;5.142;2022-11-20T12:55:02;29.75;;;17.63;;
67839;SDS011;54636;51.684;5.142;2022-11-20T13:00:29;46.67;;;24.20;;
67839;SDS011;54636;51.684;5.142;2022-11-20T13:08:12;26.92;;;14.38;;
67839;SDS011;54636;51.684;5.142;2022-11-20T13:13:33;34.47;;;19.23;;
67839;SDS011;54636;51.684;5.142;2022-11-20T13:16:25;45.58;;;24.88;;
67839;SDS011;54636;51.684;5.142;2022-11-20T13:19:04;34.35;;;18.63;;
67839;SDS011;54636;51.684;5.142;2022-11-20T13:21:36;39.75;;;19.52;;
67839;SDS011;54636;51.684;5.142;2022-11-20T13:24:04;36.63;;;18.70;;
67839;SDS011;54636;51.684;5.142;2022-11-20T13:26:45;46.28;;;25.52;;
67839;SDS011;54636;51.684;5.142;2022-11-20T13:29:12;50.20;;;23.50;;
67839;SDS011;54636;51.684;5.142;2022-11-20T13:31:46;46.15;;;25.40;;
67839;SDS011;54636;51.684;5.142;2022-11-20T13:34:34;36.83;;;17.95;;
67839;SDS011;54636;51.684;5.142;2022-11-20T13:36:59;28.08;;;16.33;;
67839;SDS011;54636;51.684;5.142;2022-11-20T13:39:32;49.75;;;25.00;;
67839;SDS011;54636;51.684;5.142;2022-11-20T13:42:03;52.30;;;26.48;;
67839;SDS011;54636;51.684;5.142;2022-11-20T13:44:53;41.07;;;23.60;;
67839;SDS011;54636;51.684;5.142;2022-11-20T13:47:24;47.35;;;24.52;;
67839;SDS011;54636;51.684;5.142;2022-11-20T13:49:51;47.17;;;21.63;;
67839;SDS011;54636;51.684;5.142;2022-11-20T14:00:48;51.30;;;25.00;;
67839;SDS011;54636;51.684;5.142;2022-11-20T14:03:21;38.88;;;21.02;;
67839;SDS011;54636;51.684;5.142;2022-11-20T14:05:52;37.88;;;18.75;;
67839;SDS011;54636;51.684;5.142;2022-11-20T14:08:31;34.50;;;19.48;;
67839;SDS011;54636;51.684;5.142;2022-11-20T14:11:02;53.90;;;25.52;;
67839;SDS011;54636;51.684;5.142;2022-11-20T14:13:38;49.85;;;23.63;;
67839;SDS011;54636;51.684;5.142;2022-11-20T14:16:03;42.20;;;21.25;;
67839;SDS011;54636;51.684;5.142;2022-11-20T14:18:29;51.88;;;27.17;;
67839;SDS011;54636;51.684;5.142;2022-11-20T14:20:54;29.55;;;15.10;;
67839;SDS011;54636;51.684;5.142;2022-11-20T14:23:23;48.78;;;23.73;;
67839;SDS011;54636;51.684;5.142;2022-11-20T14:25:53;40.40;;;20.25;;
67839;SDS011;54636;51.684;5.142;2022-11-20T14:28:25;40.20;;;22.92;;
67839;SDS011;54636;51.684;5.142;2022-11-20T14:30:52;62.90;;;26.83;;
67839;SDS011;54636;51.684;5.142;2022-11-20T14:33:18;35.45;;;20.52;;
67839;SDS011;54636;51.684;5.142;2022-11-20T14:38:11;36.90;;;21.05;;
67839;SDS011;54636;51.684;5.142;2022-11-20T14:40:39;48.40;;;20.63;;
67839;SDS011;54636;51.684;5.142;2022-11-20T14:48:46;46.72;;;24.58;;
67839;SDS011;54636;51.684;5.142;2022-11-20T14:54:19;49.70;;;22.95;;
67839;SDS011;54636;51.684;5.142;2022-11-20T14:56:57;36.72;;;19.52;;
67839;SDS011;54636;51.684;5.142;2022-11-20T14:59:31;52.90;;;23.90;;
67839;SDS011;54636;51.684;5.142;2022-11-20T15:01:59;60.78;;;28.08;;
67839;SDS011;54636;51.684;5.142;2022-11-20T15:04:26;41.67;;;21.38;;
67839;SDS011;54636;51.684;5.142;2022-11-20T15:06:53;26.42;;;15.80;;
67839;SDS011;54636;51.684;5.142;2022-11-20T15:09:20;54.10;;;28.25;;
67839;SDS011;54636;51.684;5.142;2022-11-20T15:11:55;34.15;;;15.93;;
67839;SDS011;54636;51.684;5.142;2022-11-20T15:14:23;47.15;;;23.27;;
67839;SDS011;54636;51.684;5.142;2022-11-20T15:16:50;52.53;;;26.13;;
67839;SDS011;54636;51.684;5.142;2022-11-20T15:19:25;56.53;;;28.00;;
67839;SDS011;54636;51.684;5.142;2022-11-20T15:21:51;54.00;;;27.27;;
67839;SDS011;54636;51.684;5.142;2022-11-20T15:24:17;46.75;;;19.77;;
67839;SDS011;54636;51.684;5.142;2022-11-20T15:26:43;43.03;;;20.73;;
67839;SDS011;54636;51.684;5.142;2022-11-20T15:29:10;51.47;;;25.98;;
67839;SDS011;54636;51.684;5.142;2022-11-20T15:31:38;40.08;;;20.15;;
67839;SDS011;54636;51.684;5.142;2022-11-20T15:34:13;56.97;;;27.50;;
67839;SDS011;54636;51.684;5.142;2022-11-20T15:36:40;45.15;;;22.08;;
67839;SDS011;54636;51.684;5.142;2022-11-20T15:39:06;49.38;;;25.52;;
67839;SDS011;54636;51.684;5.142;2022-11-20T15:41:32;57.90;;;28.30;;
67839;SDS011;54636;51.684;5.142;2022-11-20T15:43:59;53.70;;;28.92;;
67839;SDS011;54636;51.684;5.142;2022-11-20T15:46:27;56.35;;;26.30;;
67839;SDS011;54636;51.684;5.142;2022-11-20T15:48:58;56.80;;;26.40;;
67839;SDS011;54636;51.684;5.142;2022-11-20T15:53:55;43.90;;;24.02;;
67839;SDS011;54636;51.684;5.142;2022-11-20T15:56:21;40.42;;;20.40;;
67839;SDS011;54636;51.684;5.142;2022-11-20T15:58:47;47.05;;;22.23;;
67839;SDS011;54636;51.684;5.142;2022-11-20T16:01:13;48.05;;;25.13;;
67839;SDS011;54636;51.684;5.142;2022-11-20T16:03:41;30.60;;;16.80;;
67839;SDS011;54636;51.684;5.142;2022-11-20T16:06:07;42.63;;;22.95;;
67839;SDS011;54636;51.684;5.142;2022-11-20T16:08:32;50.83;;;25.52;;
67839;SDS011;54636;51.684;5.142;2022-11-20T16:10:58;47.88;;;24.10;;
67839;SDS011;54636;51.684;5.142;2022-11-20T16:13:23;26.30;;;16.67;;
67839;SDS011;54636;51.684;5.142;2022-11-20T16:16:18;38.88;;;19.60;;
67839;SDS011;54636;51.684;5.142;2022-11-20T16:18:44;48.78;;;25.25;;
67839;SDS011;54636;51.684;5.142;2022-11-20T16:21:10;51.00;;;25.65;;
67839;SDS011;54636;51.684;5.142;2022-11-20T16:23:37;40.25;;;20.70;;